createdAt,value
2023-09-26T00:00:16.634Z,96700.75
2023-09-26T00:02:47.244Z,96700.47
2023-09-26T00:05:15.543Z,96692.31
2023-09-26T00:07:43.999Z,96706.03
2023-09-26T00:10:13.298Z,96703.94
2023-09-26T00:12:42.132Z,96708.47
2023-09-26T00:15:12.632Z,96702.44
2023-09-26T00:17:41.675Z,96704.84
2023-09-26T00:20:29.526Z,96698.31
2023-09-26T00:22:58.008Z,96704.56
2023-09-26T00:25:26.826Z,96701.94
2023-09-26T00:27:55.682Z,96703.50
2023-09-26T00:30:24.426Z,96700.34
2023-09-26T00:32:52.571Z,96700.34
2023-09-26T00:35:22.329Z,96707.72
2023-09-26T00:37:52.260Z,96697.72
2023-09-26T00:40:23.376Z,96695.34
2023-09-26T00:42:52.074Z,96696.13
2023-09-26T00:45:20.929Z,96702.97
2023-09-26T00:47:50.871Z,96701.66
2023-09-26T00:50:19.564Z,96699.81
2023-09-26T00:52:52.440Z,96698.25
2023-09-26T00:55:25.168Z,96697.72
2023-09-26T00:57:55.711Z,96699.56
2023-09-26T01:00:25.762Z,96696.16
2023-09-26T01:02:54.050Z,96702.53
2023-09-26T01:05:22.358Z,96697.78
2023-09-26T01:07:54.182Z,96702.00
2023-09-26T01:10:22.296Z,96694.13
2023-09-26T01:12:51.636Z,96702.56
2023-09-26T01:15:32.880Z,96693.88
2023-09-26T01:18:01.080Z,96699.41
2023-09-26T01:20:30.148Z,96703.34
2023-09-26T01:23:05.546Z,96687.84
2023-09-26T01:25:35.154Z,96694.44
2023-09-26T01:28:08.049Z,96689.44
2023-09-26T01:30:36.226Z,96678.91
2023-09-26T01:33:05.869Z,96684.41
2023-09-26T01:35:34.240Z,96678.88
2023-09-26T01:38:02.456Z,96668.91
2023-09-26T01:40:30.615Z,96676.78
2023-09-26T01:43:00.147Z,96668.13
2023-09-26T01:45:28.413Z,96665.22
2023-09-26T01:47:56.918Z,96672.59
2023-09-26T01:50:25.305Z,96674.72
2023-09-26T01:52:53.677Z,96675.78
2023-09-26T01:55:23.173Z,96680.50
2023-09-26T01:57:51.866Z,96676.56
2023-09-26T02:00:21.888Z,96675.25
2023-09-26T02:02:51.851Z,96676.81
2023-09-26T02:05:21.953Z,96674.69
2023-09-26T02:07:50.722Z,96677.84
2023-09-26T02:10:19.557Z,96677.84
2023-09-26T02:12:49.673Z,96682.06
2023-09-26T02:15:18.004Z,96669.47
2023-09-26T02:17:47.709Z,96675.50
2023-09-26T02:20:19.116Z,96673.13
2023-09-26T02:22:49.480Z,96670.75
2023-09-26T02:25:20.201Z,96676.28
2023-09-26T02:27:49.255Z,96675.75
2023-09-26T02:30:19.521Z,96683.09
2023-09-26T02:32:49.272Z,96685.19
2023-09-26T02:35:20.792Z,96682.56
2023-09-26T02:37:49.176Z,96686.78
2023-09-26T02:40:17.267Z,96679.69
2023-09-26T02:42:46.266Z,96683.09
2023-09-26T02:45:15.673Z,96681.53
2023-09-26T02:47:44.764Z,96679.41
2023-09-26T02:50:14.910Z,96684.13
2023-09-26T02:52:44.343Z,96682.28
2023-09-26T02:55:13.010Z,96679.41
2023-09-26T02:57:41.396Z,96674.94
2023-09-26T03:00:18.511Z,96679.91
2023-09-26T03:02:48.074Z,96668.31
2023-09-26T03:05:18.688Z,96662.25
2023-09-26T03:07:47.673Z,96664.31
2023-09-26T03:10:17.323Z,96661.94
2023-09-26T03:12:47.733Z,96671.38
2023-09-26T03:15:16.241Z,96656.69
2023-09-26T03:17:44.858Z,96668.19
2023-09-26T03:20:16.626Z,96664.47
2023-09-26T03:22:46.800Z,96660.50
2023-09-26T03:25:15.163Z,96668.88
2023-09-26T03:27:43.783Z,96678.31
2023-09-26T03:30:12.403Z,96669.13
2023-09-26T03:32:40.612Z,96660.69
2023-09-26T03:35:10.454Z,96661.47
2023-09-26T03:37:38.959Z,96659.41
2023-09-26T03:40:10.267Z,96670.69
2023-09-26T03:42:38.640Z,96662.25
2023-09-26T03:45:08.006Z,96671.97
2023-09-26T03:47:36.619Z,96669.06
2023-09-26T03:50:05.032Z,96670.88
2023-09-26T03:52:33.185Z,96666.91
2023-09-26T03:55:01.497Z,96666.09
2023-09-26T03:57:32.316Z,96662.66
2023-09-26T04:00:00.514Z,96662.66
2023-09-26T04:02:28.823Z,96666.31
2023-09-26T04:04:57.068Z,96662.88
2023-09-26T04:07:29.395Z,96669.41
2023-09-26T04:09:57.667Z,96670.16
2023-09-26T04:12:25.894Z,96665.69
2023-09-26T04:14:55.556Z,96666.97
2023-09-26T04:17:23.736Z,96671.16
2023-09-26T04:19:52.257Z,96658.84
2023-09-26T04:22:20.443Z,96660.44
2023-09-26T04:24:48.604Z,96661.50
2023-09-26T04:27:16.829Z,96657.34
2023-09-26T04:29:44.948Z,96658.44
2023-09-26T04:32:14.598Z,96655.84
2023-09-26T04:34:42.868Z,96657.16
2023-09-26T04:37:11.033Z,96662.44
2023-09-26T04:39:39.164Z,96656.94
2023-09-26T04:42:07.392Z,96656.44
2023-09-26T04:44:35.630Z,96660.63
2023-09-26T04:47:03.867Z,96648.03
2023-09-26T04:49:35.238Z,96660.63
2023-09-26T04:52:03.620Z,96645.44
2023-09-26T04:54:31.914Z,96649.63
2023-09-26T04:57:00.254Z,96647.56
2023-09-26T04:59:29.964Z,96649.38
2023-09-26T05:01:58.218Z,96651.22
2023-09-26T05:04:26.986Z,96648.63
2023-09-26T05:06:56.663Z,96647.38
2023-09-26T05:09:25.258Z,96647.91
2023-09-26T05:11:53.455Z,96645.03
2023-09-26T05:14:21.784Z,96649.75
2023-09-26T05:16:51.359Z,96653.97
2023-09-26T05:19:19.589Z,96649.25
2023-09-26T05:21:47.902Z,96653.94
2023-09-26T05:24:17.524Z,96652.34
2023-09-26T05:26:45.899Z,96654.38
2023-09-26T05:29:14.099Z,96650.16
2023-09-26T05:31:42.450Z,96662.19
2023-09-26T05:34:10.802Z,96666.09
2023-09-26T05:36:39.086Z,96660.06
2023-09-26T05:39:08.019Z,96658.47
2023-09-26T05:41:37.526Z,96656.91
2023-09-26T05:44:05.958Z,96658.47
2023-09-26T05:46:34.230Z,96657.19
2023-09-26T05:49:02.504Z,96655.38
2023-09-26T05:51:30.607Z,96657.50
2023-09-26T05:53:58.726Z,96659.59
2023-09-26T05:56:26.866Z,96665.63
2023-09-26T05:58:56.381Z,96665.34
2023-09-26T06:01:24.570Z,96661.09
2023-09-26T06:03:53.447Z,96664.22
2023-09-26T06:06:21.887Z,96660.53
2023-09-26T06:08:50.003Z,96657.91
2023-09-26T06:11:18.132Z,96663.16
2023-09-26T06:13:46.938Z,96657.88
2023-09-26T06:16:17.711Z,96661.28
2023-09-26T06:18:46.001Z,96661.03
2023-09-26T06:21:15.370Z,96664.19
2023-09-26T06:23:43.590Z,96660.00
2023-09-26T06:26:11.799Z,96663.38
2023-09-26T06:28:40.050Z,96671.47
2023-09-26T06:31:09.354Z,96675.88
2023-09-26T06:33:39.512Z,96677.69
2023-09-26T06:36:14.417Z,96678.28
2023-09-26T06:38:42.875Z,96680.94
2023-09-26T06:41:11.025Z,96676.81
2023-09-26T06:43:39.157Z,96674.22
2023-09-26T06:46:08.203Z,96683.63
2023-09-26T06:48:38.523Z,96669.44
2023-09-26T06:51:09.648Z,96666.81
2023-09-26T06:53:38.755Z,96665.28
2023-09-26T06:56:08.513Z,96663.75
2023-09-26T06:58:37.813Z,96668.03
2023-09-26T07:01:13.274Z,96666.00
2023-09-26T07:03:41.656Z,96665.22
2023-09-26T07:06:12.351Z,96662.63
2023-09-26T07:08:42.047Z,96669.72
2023-09-26T07:11:11.592Z,96660.03
2023-09-26T07:16:11.551Z,96675.03
2023-09-26T07:18:39.821Z,96674.00
2023-09-26T07:21:09.315Z,96673.75
2023-09-26T07:23:39.974Z,96674.56
2023-09-26T07:26:11.045Z,96660.13
2023-09-26T07:28:41.376Z,96657.28
2023-09-26T07:31:10.737Z,96653.41
2023-09-26T07:33:39.845Z,96653.91
2023-09-26T07:36:08.999Z,96655.94
2023-09-26T07:38:38.635Z,96666.72
2023-09-26T07:41:07.053Z,96658.09
2023-09-26T07:43:35.566Z,96656.34
2023-09-26T07:46:07.435Z,96647.50
2023-09-26T07:48:36.502Z,96641.78
2023-09-26T07:51:05.235Z,96637.63
2023-09-26T07:53:33.304Z,96628.03
2023-09-26T07:56:02.889Z,96626.53
2023-09-26T07:58:31.046Z,96628.06
2023-09-26T08:01:02.070Z,96625.44
2023-09-26T08:03:30.633Z,96626.38
2023-09-26T08:06:02.367Z,96617.09
2023-09-26T08:08:31.489Z,96616.69
2023-09-26T08:11:08.591Z,96618.09
2023-09-26T08:13:37.761Z,96617.41
2023-09-26T08:16:06.899Z,96615.25
2023-09-26T08:18:35.174Z,96614.31
2023-09-26T08:21:03.364Z,96613.22
2023-09-26T08:23:31.717Z,96614.63
2023-09-26T08:26:00.244Z,96607.91
2023-09-26T08:28:30.285Z,96609.25
2023-09-26T08:30:58.765Z,96602.69
2023-09-26T08:33:27.588Z,96597.66
2023-09-26T08:35:55.690Z,96597.03
2023-09-26T08:38:23.794Z,96594.50
2023-09-26T08:40:52.954Z,96593.06
2023-09-26T08:43:26.262Z,96588.22
2023-09-26T08:45:56.328Z,96581.44
2023-09-26T08:48:25.242Z,96581.41
2023-09-26T08:50:54.258Z,96577.84
2023-09-26T08:53:22.704Z,96570.13
2023-09-26T08:55:51.469Z,96578.28
2023-09-26T08:58:21.949Z,96573.69
2023-09-26T09:00:50.724Z,96576.91
2023-09-26T09:03:20.788Z,96565.03
2023-09-26T09:05:49.132Z,96562.00
2023-09-26T09:08:21.665Z,96557.66
2023-09-26T09:10:51.194Z,96564.09
2023-09-26T09:13:29.551Z,96553.38
2023-09-26T09:16:20.301Z,96541.09
2023-09-26T09:18:53.424Z,96531.94
2023-09-26T09:21:24.331Z,96536.16
2023-09-26T09:23:53.490Z,96537.84
2023-09-26T09:26:21.841Z,96527.84
2023-09-26T09:28:50.296Z,96514.56
2023-09-26T09:31:18.878Z,96516.50
2023-09-26T09:33:50.516Z,96506.19
2023-09-26T09:36:18.615Z,96503.66
2023-09-26T09:38:46.768Z,96497.88
2023-09-26T09:41:15.154Z,96506.25
2023-09-26T09:43:43.477Z,96489.56
2023-09-26T09:46:12.170Z,96486.41
2023-09-26T09:48:44.716Z,96480.38
2023-09-26T09:51:15.936Z,96481.16
2023-09-26T09:53:46.429Z,96478.56
2023-09-26T09:56:20.145Z,96466.34
2023-09-26T09:58:54.319Z,96468.56
2023-09-26T10:01:24.334Z,96466.84
2023-09-26T10:03:54.438Z,96453.75
2023-09-26T10:06:25.001Z,96459.84
2023-09-26T10:08:55.162Z,96445.88
2023-09-26T10:11:25.282Z,96448.56
2023-09-26T10:13:53.656Z,96443.69
2023-09-26T10:16:22.125Z,96438.81
2023-09-26T10:18:52.553Z,96432.72
2023-09-26T10:21:31.286Z,96423.69
2023-09-26T10:24:30.627Z,96410.19
2023-09-26T10:27:13.719Z,96410.44
2023-09-26T10:29:55.948Z,96396.81
2023-09-26T10:32:30.382Z,96395.28
2023-09-26T10:35:00.029Z,96395.31
2023-09-26T10:37:29.876Z,96388.53
2023-09-26T10:39:58.341Z,96383.22
2023-09-26T10:44:58.844Z,96379.84
2023-09-26T10:47:27.112Z,96376.28
2023-09-26T10:49:58.214Z,96373.78
2023-09-26T10:52:31.750Z,96377.06
2023-09-26T10:55:00.279Z,96380.97
2023-09-26T10:57:28.625Z,96381.53
2023-09-26T10:59:56.896Z,96375.97
2023-09-26T11:02:25.315Z,96373.88
2023-09-26T11:04:54.350Z,96365.09
2023-09-26T11:07:23.327Z,96366.88
2023-09-26T11:09:53.177Z,96368.00
2023-09-26T11:12:21.733Z,96362.53
2023-09-26T11:14:49.795Z,96365.31
2023-09-26T11:17:17.925Z,96363.06
2023-09-26T11:19:46.108Z,96369.63
2023-09-26T11:22:14.311Z,96368.75
2023-09-26T11:24:42.423Z,96376.13
2023-09-26T11:27:12.615Z,96374.69
2023-09-26T11:29:42.777Z,96380.81
2023-09-26T11:32:12.011Z,96377.34
2023-09-26T11:34:42.932Z,96372.31
2023-09-26T11:37:11.238Z,96378.78
2023-09-26T11:39:39.520Z,96378.84
2023-09-26T11:42:08.470Z,96379.53
2023-09-26T11:44:38.413Z,96374.81
2023-09-26T11:47:10.078Z,96372.97
2023-09-26T11:49:38.580Z,96367.06
2023-09-26T11:52:07.324Z,96371.81
2023-09-26T11:54:37.778Z,96360.41
2023-09-26T11:57:06.272Z,96356.94
2023-09-26T11:59:36.120Z,96354.06
2023-09-26T12:02:05.906Z,96357.88
2023-09-26T12:04:35.040Z,96349.81
2023-09-26T12:07:03.966Z,96347.94
2023-09-26T12:09:34.528Z,96349.09
2023-09-26T12:12:02.902Z,96342.66
2023-09-26T12:14:31.461Z,96335.16
2023-09-26T12:17:01.157Z,96341.00
2023-09-26T12:19:30.970Z,96342.56
2023-09-26T12:21:59.209Z,96343.34
2023-09-26T12:24:27.295Z,96336.56
2023-09-26T12:26:55.396Z,96338.94
2023-09-26T12:29:23.588Z,96329.72
2023-09-26T12:31:52.024Z,96330.41
2023-09-26T12:34:20.798Z,96314.69
2023-09-26T12:36:50.650Z,96316.53
2023-09-26T12:39:18.752Z,96311.09
2023-09-26T12:41:47.043Z,96311.88
2023-09-26T12:44:15.312Z,96308.75
2023-09-26T12:46:43.501Z,96299.59
2023-09-26T12:49:11.835Z,96300.38
2023-09-26T12:51:40.289Z,96297.25
2023-09-26T12:54:10.017Z,96291.66
2023-09-26T12:56:38.324Z,96287.00
2023-09-26T12:59:07.075Z,96287.00
2023-09-26T13:01:36.375Z,96285.47
2023-09-26T13:04:04.992Z,96285.38
2023-09-26T13:06:33.269Z,96281.50
2023-09-26T13:09:01.561Z,96279.97
2023-09-26T13:11:31.076Z,96274.19
2023-09-26T13:13:59.295Z,96267.41
2023-09-26T13:16:28.099Z,96260.22
2023-09-26T13:18:57.019Z,96271.06
2023-09-26T13:21:25.218Z,96267.91
2023-09-26T13:23:53.590Z,96263.31
2023-09-26T13:26:21.853Z,96269.03
2023-09-26T13:28:51.563Z,96272.91
2023-09-26T13:31:19.801Z,96266.00
2023-09-26T13:33:47.976Z,96264.44
2023-09-26T13:36:16.054Z,96262.69
2023-09-26T13:38:44.313Z,96262.47
2023-09-26T13:41:12.799Z,96249.97
2023-09-26T13:43:41.122Z,96255.69
2023-09-26T13:46:10.805Z,96248.06
2023-09-26T13:48:39.059Z,96241.31
2023-09-26T13:51:07.868Z,96244.84
2023-09-26T13:53:36.508Z,96245.97
2023-09-26T13:56:04.720Z,96236.81
2023-09-26T13:58:32.915Z,96234.06
2023-09-26T14:01:01.099Z,96236.22
2023-09-26T14:03:32.475Z,96232.00
2023-09-26T14:06:01.281Z,96229.06
2023-09-26T14:08:29.461Z,96233.28
2023-09-26T14:10:57.741Z,96230.66
2023-09-26T14:13:26.040Z,96227.22
2023-09-26T14:15:54.600Z,96223.69
2023-09-26T14:18:22.877Z,96223.53
2023-09-26T14:20:53.268Z,96220.94
2023-09-26T14:23:24.871Z,96224.41
2023-09-26T14:25:54.346Z,96226.03
2023-09-26T14:28:22.816Z,96224.53
2023-09-26T14:30:51.140Z,96226.03
2023-09-26T14:33:19.717Z,96221.44
2023-09-26T14:35:48.504Z,96230.59
2023-09-26T14:38:18.806Z,96224.25
2023-09-26T14:40:49.405Z,96226.38
2023-09-26T14:43:17.664Z,96218.25
2023-09-26T14:45:52.924Z,96222.00
2023-09-26T14:48:22.018Z,96225.88
2023-09-26T14:50:51.199Z,96218.34
2023-09-26T14:53:21.258Z,96218.19
2023-09-26T14:55:49.738Z,96221.84
2023-09-26T14:58:17.946Z,96215.97
2023-09-26T15:00:48.105Z,96212.16
2023-09-26T15:03:17.010Z,96213.91
2023-09-26T15:05:45.671Z,96216.94
2023-09-26T15:08:14.042Z,96224.69
2023-09-26T15:10:43.832Z,96218.72
2023-09-26T15:13:13.637Z,96220.25
2023-09-26T15:15:42.012Z,96230.97
2023-09-26T15:18:10.248Z,96224.13
2023-09-26T15:20:40.577Z,96213.44
2023-09-26T15:23:12.161Z,96229.34
2023-09-26T15:25:40.348Z,96230.47
2023-09-26T15:28:14.346Z,96227.09
2023-09-26T15:30:42.618Z,96233.59
2023-09-26T15:33:11.039Z,96226.06
2023-09-26T15:35:40.535Z,96228.16
2023-09-26T15:38:09.366Z,96232.41
2023-09-26T15:40:37.647Z,96233.53
2023-09-26T15:43:06.497Z,96228.59
2023-09-26T15:45:36.190Z,96225.13
2023-09-26T15:48:05.406Z,96235.06
2023-09-26T15:50:33.683Z,96235.69
2023-09-26T15:53:02.036Z,96241.81
2023-09-26T15:55:30.323Z,96245.63
2023-09-26T15:57:58.447Z,96240.13
2023-09-26T16:00:26.550Z,96251.34
2023-09-26T16:02:56.070Z,96250.06
2023-09-26T16:05:24.316Z,96246.63
2023-09-26T16:07:52.687Z,96248.00
2023-09-26T16:10:21.519Z,96255.34
2023-09-26T16:15:29.518Z,96252.50
2023-09-26T16:18:00.815Z,96249.66
2023-09-26T16:20:29.251Z,96252.25
2023-09-26T16:22:58.017Z,96256.91
2023-09-26T16:25:26.299Z,96250.50
2023-09-26T16:27:54.549Z,96264.31
2023-09-26T16:30:22.930Z,96257.94
2023-09-26T16:32:51.357Z,96264.47
2023-09-26T16:35:21.326Z,96267.66
2023-09-26T16:37:49.968Z,96262.38
2023-09-26T16:40:18.202Z,96270.78
2023-09-26T16:42:46.434Z,96275.41
2023-09-26T16:45:15.130Z,96278.09
2023-09-26T16:47:45.891Z,96279.72
2023-09-26T16:50:15.487Z,96278.19
2023-09-26T16:52:45.261Z,96275.22
2023-09-26T16:55:13.562Z,96284.03
2023-09-26T16:57:43.782Z,96293.81
2023-09-26T17:00:15.727Z,96297.56
2023-09-26T17:02:44.219Z,96302.69
2023-09-26T17:05:13.115Z,96310.56
2023-09-26T17:07:42.741Z,96304.94
2023-09-26T17:10:12.952Z,96315.03
2023-09-26T17:12:41.248Z,96308.69
2023-09-26T17:15:10.190Z,96312.03
2023-09-26T17:17:39.549Z,96321.25
2023-09-26T17:20:09.121Z,96324.91
2023-09-26T17:22:37.527Z,96325.25
2023-09-26T17:25:06.447Z,96326.56
2023-09-26T17:27:37.208Z,96331.31
2023-09-26T17:30:08.069Z,96336.84
2023-09-26T17:32:37.251Z,96337.72
2023-09-26T17:35:06.248Z,96340.31
2023-09-26T17:37:34.674Z,96351.81
2023-09-26T17:40:02.892Z,96354.25
2023-09-26T17:42:35.330Z,96355.31
2023-09-26T17:45:04.280Z,96363.81
2023-09-26T17:47:32.540Z,96365.72
2023-09-26T17:50:00.839Z,96359.94
2023-09-26T17:52:29.159Z,96366.69
2023-09-26T17:54:57.443Z,96369.41
2023-09-26T17:57:25.809Z,96387.59
2023-09-26T17:59:55.979Z,96380.38
2023-09-26T18:02:24.294Z,96393.03
2023-09-26T18:04:55.828Z,96395.84
2023-09-26T18:07:24.430Z,96401.28
2023-09-26T18:09:52.684Z,96409.59
2023-09-26T18:12:20.930Z,96418.44
2023-09-26T18:14:49.180Z,96417.25
2023-09-26T18:17:19.007Z,96422.63
2023-09-26T18:19:47.471Z,96433.47
2023-09-26T18:22:15.766Z,96438.38
2023-09-26T18:24:44.054Z,96437.66
2023-09-26T18:27:12.357Z,96447.22
2023-09-26T18:29:40.613Z,96448.03
2023-09-26T18:32:08.974Z,96450.38
2023-09-26T18:34:38.619Z,96453.53
2023-09-26T18:37:06.921Z,96454.00
2023-09-26T18:39:35.224Z,96458.97
2023-09-26T18:42:04.681Z,96456.03
2023-09-26T18:44:32.926Z,96466.97
2023-09-26T18:47:01.211Z,96472.91
2023-09-26T18:49:29.579Z,96477.13
2023-09-26T18:51:59.230Z,96477.44
2023-09-26T18:54:27.594Z,96472.59
2023-09-26T18:56:57.123Z,96475.56
2023-09-26T18:59:25.865Z,96483.38
2023-09-26T19:01:54.306Z,96488.22
2023-09-26T19:04:22.941Z,96496.81
2023-09-26T19:06:51.286Z,96489.47
2023-09-26T19:09:20.892Z,96500.25
2023-09-26T19:11:51.032Z,96499.78
2023-09-26T19:14:19.272Z,96511.06
2023-09-26T19:16:47.574Z,96511.06
2023-09-26T19:19:15.771Z,96514.81
2023-09-26T19:21:44.429Z,96508.69
2023-09-26T19:24:13.027Z,96516.47
2023-09-26T19:26:43.930Z,96516.47
2023-09-26T19:29:12.268Z,96526.56
2023-09-26T19:31:41.535Z,96517.78
2023-09-26T19:34:09.911Z,96522.91
2023-09-26T19:36:38.184Z,96530.41
2023-09-26T19:39:06.547Z,96532.28
2023-09-26T19:41:34.791Z,96537.88
2023-09-26T19:44:04.784Z,96535.53
2023-09-26T19:46:33.128Z,96532.88
2023-09-26T19:49:01.319Z,96543.63
2023-09-26T19:51:29.623Z,96540.63
2023-09-26T19:53:58.205Z,96540.59
2023-09-26T19:56:27.164Z,96541.66
2023-09-26T19:58:55.821Z,96552.09
2023-09-26T20:01:26.969Z,96549.09
2023-09-26T20:03:55.696Z,96542.34
2023-09-26T20:06:24.356Z,96544.94
2023-09-26T20:08:55.718Z,96545.25
2023-09-26T20:11:24.382Z,96536.16
2023-09-26T20:13:52.706Z,96545.19
2023-09-26T20:16:21.143Z,96546.38
2023-09-26T20:18:50.845Z,96549.72
2023-09-26T20:21:19.207Z,96556.72
2023-09-26T20:23:48.028Z,96565.25
2023-09-26T20:26:16.311Z,96562.13
2023-09-26T20:28:46.137Z,96571.34
2023-09-26T20:31:17.011Z,96575.06
2023-09-26T20:33:46.938Z,96575.88
2023-09-26T20:36:16.592Z,96573.81
2023-09-26T20:38:44.667Z,96574.72
2023-09-26T20:41:12.987Z,96574.53
2023-09-26T20:43:41.453Z,96576.88
2023-09-26T20:46:10.452Z,96586.19
2023-09-26T20:48:38.766Z,96587.88
2023-09-26T20:51:07.266Z,96592.50
2023-09-26T20:53:36.837Z,96589.81
2023-09-26T20:56:06.403Z,96591.09
2023-09-26T20:58:34.946Z,96588.34
2023-09-26T21:01:10.008Z,96587.69
2023-09-26T21:03:38.708Z,96587.28
2023-09-26T21:06:10.776Z,96584.25
2023-09-26T21:08:40.600Z,96591.50
2023-09-26T21:11:08.797Z,96595.03
2023-09-26T21:13:37.084Z,96602.75
2023-09-26T21:16:10.521Z,96592.44
2023-09-26T21:18:40.528Z,96597.34
2023-09-26T21:21:09.337Z,96601.47
2023-09-26T21:23:37.709Z,96592.81
2023-09-26T21:26:11.568Z,96596.53
2023-09-26T21:28:40.360Z,96603.50
2023-09-26T21:31:08.635Z,96594.31
2023-09-26T21:33:37.887Z,96600.47
2023-09-26T21:36:07.394Z,96602.63
2023-09-26T21:38:36.462Z,96598.50
2023-09-26T21:41:04.891Z,96609.66
2023-09-26T21:43:34.514Z,96610.25
2023-09-26T21:46:02.828Z,96618.66
2023-09-26T21:48:31.056Z,96605.94
2023-09-26T21:50:59.383Z,96602.72
2023-09-26T21:53:27.494Z,96609.56
2023-09-26T21:55:55.919Z,96604.56
2023-09-26T21:58:24.135Z,96592.03
2023-09-26T22:00:53.641Z,96603.59
2023-09-26T22:03:21.842Z,96605.53
2023-09-26T22:05:50.061Z,96594.53
2023-09-26T22:08:18.369Z,96597.28
2023-09-26T22:10:47.046Z,96595.50
2023-09-26T22:13:15.103Z,96593.13
2023-09-26T22:15:43.303Z,96584.13
2023-09-26T22:18:12.903Z,96592.56
2023-09-26T22:20:41.144Z,96589.84
2023-09-26T22:23:09.264Z,96589.34
2023-09-26T22:25:37.440Z,96593.34
2023-09-26T22:28:05.941Z,96592.16
2023-09-26T22:30:34.342Z,96581.94
2023-09-26T22:33:02.907Z,96584.47
2023-09-26T22:35:32.623Z,96570.53
2023-09-26T22:38:00.771Z,96580.88
2023-09-26T22:40:40.093Z,96575.16
2023-09-26T22:43:16.678Z,96579.63
2023-09-26T22:45:44.966Z,96582.34
2023-09-26T22:48:14.800Z,96573.91
2023-09-26T22:50:44.395Z,96576.00
2023-09-26T22:53:12.473Z,96580.78
2023-09-26T22:55:40.816Z,96581.84
2023-09-26T22:58:09.692Z,96575.28
2023-09-26T23:00:37.843Z,96570.63
2023-09-26T23:03:06.685Z,96574.63
2023-09-26T23:05:37.082Z,96576.78
2023-09-26T23:08:07.666Z,96575.19
2023-09-26T23:10:36.572Z,96573.41
2023-09-26T23:13:04.924Z,96570.56
2023-09-26T23:15:33.056Z,96579.03
2023-09-26T23:18:01.280Z,96575.97
2023-09-26T23:20:29.531Z,96579.16
2023-09-26T23:22:57.711Z,96586.59
2023-09-26T23:25:27.621Z,96581.31
2023-09-26T23:27:55.700Z,96579.72
2023-09-26T23:30:24.478Z,96572.38
2023-09-26T23:32:52.661Z,96568.16
2023-09-26T23:35:21.350Z,96569.75
2023-09-26T23:37:50.326Z,96571.88
2023-09-26T23:40:20.277Z,96572.16
2023-09-26T23:42:49.864Z,96582.44
2023-09-26T23:45:18.389Z,96571.88
2023-09-26T23:47:46.518Z,96578.44
2023-09-26T23:50:16.270Z,96576.59
2023-09-26T23:52:45.379Z,96572.88
2023-09-26T23:55:14.625Z,96584.22
2023-09-26T23:57:42.864Z,96577.59
